Latest Weather Observations for Lord Howe Island Windy Point

IDN60801

Issued at 10:33 pm EST Sunday 24 July 2016 (issued every 30 minutes, with the page automatically refreshed every 10 minutes)

About weather observations | Map of weather stations | Latest weather observations for NSW | Other Formats
Station Details ID: 200715 Name: LORD HOWE ISLAND WINDY POINT Lat: -31.54 Lon: 159.07 Height: 4.0 m
Data from the previous 72 hours. | See also: Recent months for locations in New South Wales
Date/Time
EST
Temp
°C
App
Temp
°C
Dew
Point
°C
Rel
Hum
%
Delta-T
°C
Wind Press
QNH
hPa
Press
MSL
hPa
Rain since
9am
mm
Dir  Spd
km/h
Gust
km/h
Spd
kts
Gust
kts
24/10:30pm - - - - - NW 17 22 9 12 - - -
24/10:00pm - - - - - NW 17 22 9 12 - - -
24/09:30pm - - - - - NW 20 26 11 14 - - -
24/09:00pm - - - - - NW 17 22 9 12 - - -
24/08:30pm - - - - - NW 13 17 7 9 - - -
24/08:00pm - - - - - NNW 7 13 4 7 - - -
24/07:30pm - - - - - NW 11 13 6 7 - - -
24/07:00pm - - - - - W 17 22 9 12 - - -
24/06:30pm - - - - - WNW 15 24 8 13 - - -
24/06:00pm - - - - - WNW 19 24 10 13 - - -
24/05:30pm - - - - - W 20 24 11 13 - - -
24/05:00pm - - - - - W 20 24 11 13 - - -
24/04:30pm - - - - - W 20 28 11 15 - - -
24/04:00pm - - - - - WSW 19 22 10 12 - - -
24/03:30pm - - - - - WSW 20 28 11 15 - - -
24/03:00pm - - - - - WSW 22 26 12 14 - - -
24/02:30pm - - - - - WSW 19 24 10 13 - - -
24/02:00pm - - - - - SW 20 26 11 14 - - -
24/01:30pm - - - - - SW 22 28 12 15 - - -
24/01:00pm - - - - - SW 26 32 14 17 - - -
24/12:30pm - - - - - SW 24 35 13 19 - - -
24/12:00pm - - - - - WSW 20 28 11 15 - - -
24/11:30am - - - - - SW 22 28 12 15 - - -
24/11:00am - - - - - SW 24 32 13 17 - - -
24/10:30am - - - - - SW 24 30 13 16 - - -
24/10:00am - - - - - SW 24 28 13 15 - - -
24/09:30am - - - - - SW 32 37 17 20 - - -
24/09:00am - - - - - SW 30 37 16 20 - - -
24/08:30am - - - - - SSW 32 39 17 21 - - -
24/08:00am - - - - - SW 28 35 15 19 - - -
24/07:30am - - - - - SW 35 44 19 24 - - -
24/07:00am - - - - - SSW 30 37 16 20 - - -
24/06:30am - - - - - SW 39 48 21 26 - - -
24/06:00am - - - - - WSW 37 44 20 24 - - -
24/05:30am - - - - - WSW 37 43 20 23 - - -
24/05:00am - - - - - WSW 41 50 22 27 - - -
24/04:30am - - - - - WSW 39 52 21 28 - - -
24/04:00am - - - - - WSW 43 50 23 27 - - -
24/03:30am - - - - - SW 43 50 23 27 - - -
24/03:00am - - - - - WSW 43 52 23 28 - - -
24/02:30am - - - - - WSW 44 57 24 31 - - -
24/02:00am - - - - - WSW 41 48 22 26 - - -
24/01:30am - - - - - WSW 44 52 24 28 - - -
24/01:00am - - - - - SW 37 52 20 28 - - -
24/12:30am - - - - - SW 39 48 21 26 - - -
24/12:00am - - - - - WSW 41 52 22 28 - - -
 
Date/Time
EST
Temp
°C
App
Temp
°C
Dew
Point
°C
Rel
Hum
%
Delta-T
°C
Wind Press
QNH
hPa
Press
MSL
hPa
Rain since
9am
mm
Dir  Spd
km/h
Gust
km/h
Spd
kts
Gust
kts
23/11:30pm - - - - - SW 41 46 22 25 - - -
23/11:00pm - - - - - SW 43 50 23 27 - - -
23/10:30pm - - - - - SW 46 59 25 32 - - -
23/10:00pm - - - - - SW 43 52 23 28 - - -
23/09:30pm - - - - - SW 41 48 22 26 - - -
23/09:00pm - - - - - SW 43 54 23 29 - - -
23/08:30pm - - - - - SW 44 54 24 29 - - -
23/08:00pm - - - - - SW 43 50 23 27 - - -
23/07:30pm - - - - - SW 43 50 23 27 - - -
23/07:00pm - - - - - SW 39 46 21 25 - - -
23/06:30pm - - - - - SW 43 50 23 27 - - -
23/06:00pm - - - - - WSW 46 52 25 28 - - -
23/05:30pm - - - - - WSW 41 50 22 27 - - -
23/05:00pm - - - - - WSW 44 56 24 30 - - -
23/04:30pm - - - - - SW 50 59 27 32 - - -
23/04:00pm - - - - - SW 44 56 24 30 - - -
23/03:30pm - - - - - WSW 43 50 23 27 - - -
23/03:00pm - - - - - SW 37 46 20 25 - - -
23/02:38pm - - - - - W 46 59 25 32 - - -
23/02:30pm - - - - - WNW 48 57 26 31 - - -
23/02:00pm - - - - - WNW 50 69 27 37 - - -
23/01:30pm - - - - - NW 57 78 31 42 - - -
23/01:00pm - - - - - NW 56 80 30 43 - - -
23/12:44pm - - - - - NW 59 78 32 42 - - -
23/12:30pm - - - - - NW 59 74 32 40 - - -
23/12:11pm - - - - - NW 57 76 31 41 - - -
23/12:00pm - - - - - NW 59 76 32 41 - - -
23/11:30am - - - - - NW 59 78 32 42 - - -
23/11:00am - - - - - NW 54 74 29 40 - - -
23/10:30am - - - - - NW 54 85 29 46 - - -
23/10:00am - - - - - NW 56 82 30 44 - - -
23/09:30am - - - - - NW 59 85 32 46 - - -
23/09:00am - - - - - NW 57 80 31 43 - - -
23/08:30am - - - - - NW 52 74 28 40 - - -
23/08:00am - - - - - NNW 46 69 25 37 - - -
23/07:30am - - - - - NNW 48 78 26 42 - - -
23/07:00am - - - - - NW 46 80 25 43 - - -
23/06:30am - - - - - NNW 52 87 28 47 - - -
23/06:00am - - - - - NW 50 80 27 43 - - -
23/05:30am - - - - - NW 44 69 24 37 - - -
23/05:13am - - - - - NW 52 70 28 38 - - -
23/05:00am - - - - - NW 52 65 28 35 - - -
23/04:31am - - - - - NW 52 70 28 38 - - -
23/04:30am - - - - - NW 54 70 29 38 - - -
23/04:00am - - - - - NW 50 70 27 38 - - -
23/03:30am - - - - - NW 48 69 26 37 - - -
23/03:15am - - - - - NW 44 63 24 34 - - -
23/03:00am - - - - - NW 46 59 25 32 - - -
23/02:31am - - - - - NW 41 59 22 32 - - -
23/02:30am - - - - - NW 43 59 23 32 - - -
23/02:00am - - - - - NW 43 61 23 33 - - -
23/01:30am - - - - - NW 37 56 20 30 - - -
23/01:01am - - - - - NNW 32 50 17 27 - - -
23/01:00am - - - - - NNW 33 50 18 27 - - -
23/12:30am - - - - - NW 32 50 17 27 - - -
23/12:00am - - - - - NW 32 52 17 28 - - -
 
Date/Time
EST
Temp
°C
App
Temp
°C
Dew
Point
°C
Rel
Hum
%
Delta-T
°C
Wind Press
QNH
hPa
Press
MSL
hPa
Rain since
9am
mm
Dir  Spd
km/h
Gust
km/h
Spd
kts
Gust
kts
22/11:33pm - - - - - NNW 28 46 15 25 - - -
22/11:30pm - - - - - NNW 30 46 16 25 - - -
22/11:09pm - - - - - NNW 28 52 15 28 - - -
22/11:00pm - - - - - NNW 26 43 14 23 - - -
22/10:36pm - - - - - NW 30 48 16 26 - - -
22/10:30pm - - - - - NW 28 43 15 23 - - -
22/10:00pm - - - - - NW 24 37 13 20 - - -
22/09:30pm - - - - - NW 22 35 12 19 - - -
22/09:00pm - - - - - NNW 20 35 11 19 - - -
22/08:30pm - - - - - NW 20 32 11 17 - - -
22/08:00pm - - - - - NNW 17 24 9 13 - - -
22/07:30pm - - - - - NW 19 26 10 14 - - -
22/07:00pm - - - - - NW 15 20 8 11 - - -
22/06:30pm - - - - - NW 11 15 6 8 - - -
22/06:00pm - - - - - NW 9 11 5 6 - - -
22/05:30pm - - - - - WNW 9 17 5 9 - - -
22/05:00pm - - - - - NW 17 20 9 11 - - -
22/04:30pm - - - - - WNW 19 22 10 12 - - -
22/04:00pm - - - - - NW 19 28 10 15 - - -
22/03:30pm - - - - - NW 17 24 9 13 - - -
22/03:00pm - - - - - WNW 19 26 10 14 - - -
22/02:30pm - - - - - WNW 19 24 10 13 - - -
22/02:00pm - - - - - WNW 17 20 9 11 - - -
22/01:30pm - - - - - WNW 19 26 10 14 - - -
22/01:00pm - - - - - W 17 20 9 11 - - -
22/12:30pm - - - - - W 22 28 12 15 - - -
22/12:00pm - - - - - WNW 17 26 9 14 - - -
22/11:30am - - - - - WNW 19 24 10 13 - - -
22/11:00am - - - - - WNW 15 17 8 9 - - -
22/10:30am - - - - - WNW 13 17 7 9 - - -
22/10:00am - - - - - WSW 9 11 5 6 - - -
22/09:30am - - - - - SSW 9 11 5 6 - - -
22/09:00am - - - - - S 7 11 4 6 - - -
22/08:30am - - - - - SSE 7 9 4 5 - - -
22/08:00am - - - - - SSW 13 17 7 9 - - -
22/07:30am - - - - - SW 13 20 7 11 - - -
22/07:00am - - - - - CALM 0 0 0 0 - - -
22/06:30am - - - - - CALM 0 6 0 3 - - -
22/06:00am - - - - - S 7 11 4 6 - - -
22/05:30am - - - - - WSW 11 13 6 7 - - -
22/05:00am - - - - - SW 17 26 9 14 - - -
22/04:30am - - - - - SE 9 13 5 7 - - -
22/04:00am - - - - - S 17 24 9 13 - - -
22/03:30am - - - - - SSE 11 19 6 10 - - -
22/03:00am - - - - - SSE 9 11 5 6 - - -
22/02:30am - - - - - S 15 22 8 12 - - -
22/02:00am - - - - - ESE 7 11 4 6 - - -
22/01:30am - - - - - SSW 15 19 8 10 - - -
22/01:00am - - - - - CALM 0 7 0 4 - - -
22/12:30am - - - - - SE 6 9 3 5 - - -
22/12:00am - - - - - SSW 15 19 8 10 - - -
 
Date/Time
EST
Temp
°C
App
Temp
°C
Dew
Point
°C
Rel
Hum
%
Delta-T
°C
Wind Press
QNH
hPa
Press
MSL
hPa
Rain since
9am
mm
Dir  Spd
km/h
Gust
km/h
Spd
kts
Gust
kts
21/11:30pm - - - - - SSE 9 17 5 9 - - -
21/11:00pm - - - - - NE 4 7 2 4 - - -

Other Formats:

Comma delimited format used in spreadsheet applications
http://www.bom.gov.au/fwo/IDN60801/IDN60801.95995.axf

JavaScript Object Notation format (JSON) in row-major order
http://www.bom.gov.au/fwo/IDN60801/IDN60801.95995.json